Time;durP1;ratioP1;P1;durP2;ratioP2;P2;SDS_P1;SDS_P2;PMS_P1;PMS_P2;Temp;Humidity;BMP_temperature;BMP_pressure;BME280_temperature;BME280_humidity;BME280_pressure;Samples;Min_cycle;Max_cycle;Signal;HPM_P1;HPM_P2
2023/03/14 00:01:09;;;;;;;4.55;3.65;;;11.00;99.90;;;;;;4913615;29;20393;-82
2023/03/14 00:03:35;;;;;;;4.20;3.50;;;11.20;99.90;;;;;;4920383;29;20243;-83
2023/03/14 00:06:04;;;;;;;3.90;3.03;;;11.30;99.90;;;;;;4927966;29;20189;-82
2023/03/14 00:08:31;;;;;;;9.23;5.68;;;11.30;99.90;;;;;;4931837;29;20214;-82
2023/03/14 00:11:04;;;;;;;5.55;3.78;;;11.40;99.90;;;;;;4939382;29;20224;-82
2023/03/14 00:13:31;;;;;;;6.82;4.28;;;11.10;99.90;;;;;;4933857;29;20361;-82
2023/03/14 00:16:03;;;;;;;5.93;3.92;;;11.00;99.90;;;;;;4919939;29;20210;-84
2023/03/14 00:18:30;;;;;;;6.20;4.43;;;11.10;99.90;;;;;;4926113;29;20220;-83
2023/03/14 00:20:59;;;;;;;4.68;3.53;;;11.40;99.90;;;;;;4917830;29;20218;-81
2023/03/14 00:23:28;;;;;;;4.35;3.10;;;11.30;99.90;;;;;;4924455;29;20216;-83
2023/03/14 00:26:02;;;;;;;22.40;9.00;;;11.30;99.90;;;;;;4919001;29;20217;-81
2023/03/14 00:28:29;;;;;;;20.02;10.93;;;11.30;99.90;;;;;;4911013;29;20247;-82
2023/03/14 00:30:56;;;;;;;8.50;5.68;;;11.20;99.90;;;;;;4907729;29;20212;-83
2023/03/14 00:33:24;;;;;;;7.70;5.38;;;11.20;99.90;;;;;;4922745;29;20261;-80
2023/03/14 00:35:55;;;;;;;6.65;5.13;;;11.20;99.90;;;;;;4914987;29;20213;-83
2023/03/14 00:38:24;;;;;;;9.10;6.25;;;11.30;99.90;;;;;;4914269;29;20213;-81
2023/03/14 00:40:52;;;;;;;7.22;4.53;;;11.50;99.90;;;;;;4915176;29;20508;-82
2023/03/14 00:43:23;;;;;;;9.15;5.20;;;11.40;99.90;;;;;;4921948;29;20609;-81
2023/03/14 00:45:51;;;;;;;8.98;3.50;;;11.70;99.90;;;;;;4922395;29;20221;-82
2023/03/14 00:48:19;;;;;;;6.30;4.25;;;11.80;99.90;;;;;;4919817;29;20220;-82
2023/03/14 00:50:47;;;;;;;7.57;4.05;;;12.00;99.90;;;;;;4911368;29;20284;-83
2023/03/14 00:53:15;;;;;;;6.95;4.43;;;11.90;99.90;;;;;;4906241;29;20411;-82
2023/03/14 00:55:43;;;;;;;6.28;4.25;;;11.70;99.90;;;;;;4917405;29;20209;-81
2023/03/14 00:58:12;;;;;;;5.35;3.45;;;11.90;99.90;;;;;;4919497;29;20238;-80
2023/03/14 01:00:40;;;;;;;4.70;3.10;;;11.80;99.90;;;;;;4912017;29;20442;-79
2023/03/14 01:03:10;;;;;;;3.95;3.55;;;11.40;99.90;;;;;;4922731;29;20200;-81
2023/03/14 01:05:39;;;;;;;2.83;2.53;;;11.40;99.90;;;;;;4915217;29;20548;-82
2023/03/14 01:08:07;;;;;;;5.28;3.47;;;11.40;99.90;;;;;;4921016;29;20236;-82
2023/03/14 01:10:37;;;;;;;6.15;3.65;;;11.50;99.90;;;;;;4912119;29;20214;-81
2023/03/14 01:13:04;;;;;;;3.22;2.90;;;11.70;99.90;;;;;;4921778;29;20258;-81
2023/03/14 01:15:33;;;;;;;5.38;3.45;;;11.70;99.90;;;;;;4912416;29;20418;-80
2023/03/14 01:18:00;;;;;;;5.63;3.33;;;11.30;99.90;;;;;;4912856;29;20291;-83
2023/03/14 01:20:27;;;;;;;6.45;3.33;;;11.50;99.90;;;;;;4910625;29;20216;-82
2023/03/14 01:22:54;;;;;;;3.53;3.20;;;11.40;99.90;;;;;;4913271;29;20530;-80
2023/03/14 01:25:21;;;;;;;3.50;3.20;;;11.50;99.90;;;;;;4910544;29;20386;-82
2023/03/14 01:27:49;;;;;;;7.40;3.33;;;11.30;99.90;;;;;;4917640;29;20417;-81
2023/03/14 01:30:16;;;;;;;9.05;3.72;;;11.40;99.90;;;;;;4914769;29;20217;-81
2023/03/14 01:32:43;;;;;;;6.50;3.35;;;11.50;99.90;;;;;;4919485;29;20449;-81
2023/03/14 01:35:10;;;;;;;6.78;3.78;;;11.50;99.90;;;;;;4912119;29;20251;-80
2023/03/14 01:37:37;;;;;;;3.05;2.55;;;11.40;99.90;;;;;;4921577;29;20260;-83
2023/03/14 01:40:05;;;;;;;5.18;3.38;;;11.20;99.90;;;;;;4926967;29;20219;-79
2023/03/14 01:42:32;;;;;;;4.88;3.50;;;11.30;99.90;;;;;;4932439;29;20198;-80
2023/03/14 01:45:00;;;;;;;4.50;3.17;;;11.40;99.90;;;;;;4934438;29;20238;-82
2023/03/14 01:47:28;;;;;;;3.25;2.95;;;11.60;99.90;;;;;;4921470;29;20494;-80
2023/03/14 01:50:11;;;;;;;5.40;3.33;;;11.80;99.90;;;;;;4916583;29;20277;-81
2023/03/14 01:52:46;;;;;;;8.50;3.75;;;11.80;99.90;;;;;;4920505;29;20236;-81
2023/03/14 01:55:17;;;;;;;4.65;3.40;;;11.70;99.90;;;;;;4926447;29;20213;-82
2023/03/14 01:58:04;;;;;;;5.85;4.30;;;11.50;99.90;;;;;;4925109;29;20220;-82
2023/03/14 02:00:31;;;;;;;5.45;4.95;;;11.40;99.90;;;;;;4907697;29;20266;-81
2023/03/14 02:03:10;;;;;;;7.55;3.88;;;11.20;99.90;;;;;;4910465;29;20621;-81
2023/03/14 02:05:40;;;;;;;8.52;4.90;;;11.10;99.90;;;;;;4904039;29;20221;-83
2023/03/14 02:08:13;;;;;;;6.45;3.58;;;11.00;99.90;;;;;;4917375;29;20216;-82
2023/03/14 02:10:46;;;;;;;9.75;5.18;;;11.00;99.90;;;;;;4916358;29;20219;-82
2023/03/14 02:13:15;;;;;;;7.30;4.35;;;10.90;99.90;;;;;;4921791;29;20257;-83
2023/03/14 02:15:43;;;;;;;9.05;5.25;;;11.10;99.90;;;;;;4922227;29;20208;-81
2023/03/14 02:18:10;;;;;;;4.18;3.30;;;11.00;99.90;;;;;;4906028;29;20368;-81
2023/03/14 02:20:56;;;;;;;8.32;3.80;;;10.90;99.90;;;;;;4913081;29;20222;-83
2023/03/14 02:23:53;;;;;;;5.35;3.95;;;10.80;99.90;;;;;;4901560;29;20525;-79
2023/03/14 02:26:43;;;;;;;7.40;3.47;;;10.70;99.90;;;;;;4910372;29;20265;-81
2023/03/14 02:29:10;;;;;;;9.40;4.60;;;10.70;99.90;;;;;;4912562;29;20425;-81
2023/03/14 02:31:37;;;;;;;9.70;4.68;;;10.50;99.90;;;;;;4922355;29;20235;-83
2023/03/14 02:34:04;;;;;;;6.63;4.13;;;10.60;99.90;;;;;;4912174;29;20231;-83
2023/03/14 02:36:32;;;;;;;5.90;4.28;;;10.60;99.90;;;;;;4909425;29;20214;-83
2023/03/14 02:39:13;;;;;;;5.07;4.30;;;10.60;99.90;;;;;;4917296;29;20221;-79
2023/03/14 02:41:42;;;;;;;6.63;4.60;;;10.60;99.90;;;;;;4906458;29;20206;-83
2023/03/14 02:44:09;;;;;;;3.30;2.90;;;10.80;99.90;;;;;;4910575;29;20219;-80
2023/03/14 02:46:36;;;;;;;6.32;3.45;;;10.90;99.90;;;;;;4909636;29;20209;-81
2023/03/14 02:49:14;;;;;;;3.75;3.42;;;10.80;99.90;;;;;;4917716;29;20259;-81
2023/03/14 02:51:42;;;;;;;5.30;2.55;;;10.70;99.90;;;;;;4916394;29;20221;-82
2023/03/14 02:54:09;;;;;;;4.63;3.30;;;10.70;99.90;;;;;;4917918;29;20236;-80
2023/03/14 02:56:37;;;;;;;4.18;3.08;;;10.70;99.90;;;;;;4915053;29;20228;-80
2023/03/14 02:59:04;;;;;;;4.90;3.83;;;10.80;99.90;;;;;;4909335;29;20212;-81
2023/03/14 03:01:32;;;;;;;5.45;3.85;;;10.70;99.90;;;;;;4902128;29;20215;-81
2023/03/14 03:04:00;;;;;;;5.57;3.35;;;10.70;99.90;;;;;;4909037;29;20323;-81
2023/03/14 03:06:27;;;;;;;5.93;4.00;;;10.80;99.90;;;;;;4918660;29;20248;-81
2023/03/14 03:08:54;;;;;;;5.00;4.03;;;10.80;99.90;;;;;;4912152;29;20234;-81
2023/03/14 03:11:21;;;;;;;3.33;3.03;;;10.90;99.90;;;;;;4909583;29;20675;-81
2023/03/14 03:13:47;;;;;;;3.45;3.15;;;10.80;99.90;;;;;;4918149;29;20397;-81
2023/03/14 03:16:14;;;;;;;6.10;3.10;;;11.10;99.90;;;;;;4911963;29;20257;-81
2023/03/14 03:18:42;;;;;;;8.23;3.45;;;11.10;99.90;;;;;;4916930;29;20567;-81
2023/03/14 03:21:09;;;;;;;11.73;3.80;;;11.00;99.90;;;;;;4912422;29;20208;-80
2023/03/14 03:23:36;;;;;;;3.20;2.90;;;11.00;99.90;;;;;;4919663;29;20274;-82
2023/03/14 03:26:03;;;;;;;6.93;2.80;;;10.80;99.90;;;;;;4921212;29;20258;-80
2023/03/14 03:28:30;;;;;;;4.22;2.83;;;10.70;99.90;;;;;;4906422;29;20206;-81
2023/03/14 03:30:57;;;;;;;6.60;2.83;;;10.70;99.90;;;;;;4921763;29;20209;-81
2023/03/14 03:33:24;;;;;;;4.07;3.67;;;10.60;99.90;;;;;;4920466;29;20217;-81
2023/03/14 03:35:52;;;;;;;5.22;3.25;;;10.50;99.90;;;;;;4922016;29;20628;-80
2023/03/14 03:38:20;;;;;;;4.45;2.88;;;10.60;99.90;;;;;;4921965;29;20240;-80
2023/03/14 03:40:48;;;;;;;6.68;3.33;;;10.60;99.90;;;;;;4927974;29;20249;-82
2023/03/14 03:43:16;;;;;;;6.00;3.00;;;10.60;99.90;;;;;;4920373;29;20209;-81
2023/03/14 03:45:42;;;;;;;7.05;3.15;;;10.50;99.90;;;;;;4924188;29;20294;-81
2023/03/14 03:48:10;;;;;;;5.57;2.70;;;10.50;99.90;;;;;;4914634;29;20260;-79
2023/03/14 03:50:43;;;;;;;3.95;2.70;;;10.40;99.90;;;;;;4910692;29;20221;-80
2023/03/14 03:53:09;;;;;;;5.30;3.10;;;10.50;99.90;;;;;;4916239;29;20206;-80
2023/03/14 03:55:40;;;;;;;2.92;2.55;;;10.60;99.90;;;;;;4923089;29;20386;-81
2023/03/14 03:58:09;;;;;;;4.28;3.05;;;10.60;99.90;;;;;;4915024;29;20545;-80
2023/03/14 04:00:36;;;;;;;3.50;2.45;;;10.60;99.90;;;;;;4917765;29;20225;-80
2023/03/14 04:03:04;;;;;;;6.75;3.35;;;10.60;99.90;;;;;;4920158;29;20209;-83
2023/03/14 04:05:31;;;;;;;4.18;3.13;;;10.60;99.90;;;;;;4917738;29;20213;-81
2023/03/14 04:07:59;;;;;;;4.40;3.15;;;10.60;99.90;;;;;;4918019;29;20209;-80
2023/03/14 04:10:25;;;;;;;2.90;2.70;;;10.60;99.90;;;;;;4912206;29;20256;-80
2023/03/14 04:12:52;;;;;;;3.97;3.05;;;10.50;99.90;;;;;;4916115;29;20230;-80
2023/03/14 04:15:19;;;;;;;3.50;2.95;;;10.60;99.90;;;;;;4914191;29;20252;-79
2023/03/14 04:17:46;;;;;;;4.47;3.15;;;10.60;99.90;;;;;;4913226;29;20230;-82
2023/03/14 04:20:13;;;;;;;4.28;2.50;;;10.70;99.90;;;;;;4921389;29;20216;-81
2023/03/14 04:22:40;;;;;;;2.75;2.25;;;10.70;99.90;;;;;;4909103;29;20210;-80
2023/03/14 04:25:10;;;;;;;4.25;2.88;;;10.70;99.90;;;;;;4919282;29;20278;-79
2023/03/14 04:27:36;;;;;;;3.67;3.38;;;10.70;99.90;;;;;;4918530;29;20261;-82
2023/03/14 04:30:04;;;;;;;3.88;3.10;;;10.80;99.90;;;;;;4913635;29;20405;-81
2023/03/14 04:32:31;;;;;;;4.90;3.55;;;10.80;99.90;;;;;;4912233;29;20226;-81
2023/03/14 04:34:58;;;;;;;3.55;3.20;;;10.80;99.90;;;;;;4919679;29;20220;-81
2023/03/14 04:37:26;;;;;;;12.70;2.58;;;10.90;99.90;;;;;;4927117;29;20236;-81
2023/03/14 04:39:53;;;;;;;4.45;2.80;;;10.90;99.90;;;;;;4934752;29;20208;-80
2023/03/14 04:42:20;;;;;;;6.07;2.65;;;10.90;99.90;;;;;;4935930;29;20222;-81
2023/03/14 04:44:49;;;;;;;5.10;3.22;;;10.80;99.90;;;;;;4941476;29;20223;-79
2023/03/14 04:47:16;;;;;;;6.00;3.58;;;10.60;99.90;;;;;;4928696;29;20227;-82
2023/03/14 04:49:42;;;;;;;6.75;2.97;;;10.70;99.90;;;;;;4925137;29;20210;-82
2023/03/14 04:52:09;;;;;;;4.75;3.55;;;10.80;99.90;;;;;;4918103;29;20220;-81
2023/03/14 04:54:36;;;;;;;3.97;2.75;;;10.90;99.90;;;;;;4917953;29;20299;-80
2023/03/14 04:57:03;;;;;;;4.32;2.90;;;10.80;99.90;;;;;;4921510;29;20209;-80
2023/03/14 04:59:30;;;;;;;3.33;3.00;;;10.80;99.90;;;;;;4921965;29;20212;-81
2023/03/14 05:01:57;;;;;;;3.92;2.80;;;10.80;99.90;;;;;;4922940;29;20285;-80
2023/03/14 05:04:24;;;;;;;4.20;3.20;;;10.80;99.90;;;;;;4912683;29;20220;-81
2023/03/14 05:06:51;;;;;;;2.40;2.20;;;11.00;99.90;;;;;;4915733;29;20209;-80
2023/03/14 05:09:18;;;;;;;3.15;2.85;;;10.90;99.90;;;;;;4908708;29;20237;-82
2023/03/14 05:11:45;;;;;;;6.53;2.88;;;10.90;99.90;;;;;;4916724;29;20233;-80
2023/03/14 05:14:18;;;;;;;3.50;3.20;;;10.60;99.90;;;;;;4911855;29;20374;-80
2023/03/14 05:16:45;;;;;;;3.22;2.70;;;10.70;99.90;;;;;;4906521;29;20270;-82
2023/03/14 05:19:12;;;;;;;2.97;2.70;;;10.70;99.90;;;;;;4912442;29;20425;-84
2023/03/14 05:21:39;;;;;;;5.25;3.22;;;10.70;99.90;;;;;;4909382;29;20212;-82
2023/03/14 05:24:05;;;;;;;5.25;2.95;;;10.60;99.90;;;;;;4919699;29;20216;-85
2023/03/14 05:26:33;;;;;;;3.20;2.90;;;10.60;99.90;;;;;;4921010;29;20233;-83
2023/03/14 05:28:59;;;;;;;3.80;3.10;;;10.50;99.90;;;;;;4915065;29;20210;-82
2023/03/14 05:31:27;;;;;;;4.07;3.60;;;10.40;99.90;;;;;;4913705;29;20662;-82
2023/03/14 05:33:54;;;;;;;5.75;3.25;;;10.30;99.90;;;;;;4919732;29;20235;-82
2023/03/14 05:36:21;;;;;;;6.18;3.47;;;10.30;99.90;;;;;;4916879;29;20213;-83
2023/03/14 05:38:48;;;;;;;4.18;3.15;;;10.40;99.90;;;;;;4928530;29;20235;-82
2023/03/14 05:41:15;;;;;;;6.07;3.25;;;10.50;99.90;;;;;;4913611;29;20218;-83
2023/03/14 05:43:42;;;;;;;4.25;3.85;;;10.40;99.90;;;;;;4932246;29;20192;-82
2023/03/14 05:46:08;;;;;;;4.35;2.90;;;10.30;99.90;;;;;;4932724;29;20218;-82
2023/03/14 05:48:36;;;;;;;6.05;2.90;;;10.30;99.90;;;;;;4931720;29;20263;-80
2023/03/14 05:51:03;;;;;;;5.18;3.80;;;10.40;99.90;;;;;;4920281;29;20220;-82
2023/03/14 05:53:30;;;;;;;3.75;3.45;;;10.30;99.90;;;;;;4915081;29;20217;-83
2023/03/14 05:55:58;;;;;;;4.80;3.47;;;10.30;99.90;;;;;;4913207;29;20292;-84
2023/03/14 05:58:27;;;;;;;4.18;2.88;;;10.00;99.90;;;;;;4913016;29;20243;-83
2023/03/14 06:00:53;;;;;;;3.95;3.60;;;10.10;99.90;;;;;;4922423;29;20212;-83
2023/03/14 06:03:21;;;;;;;8.20;3.83;;;10.10;99.90;;;;;;4921712;29;20248;-82
2023/03/14 06:05:50;;;;;;;6.32;3.50;;;10.30;99.90;;;;;;4913274;29;20201;-83
2023/03/14 06:08:18;;;;;;;9.50;3.75;;;10.30;99.90;;;;;;4922502;29;20210;-83
2023/03/14 06:10:46;;;;;;;6.43;3.58;;;10.50;99.90;;;;;;4909279;29;20245;-82
2023/03/14 06:13:15;;;;;;;5.45;4.57;;;10.40;99.90;;;;;;4921178;29;20429;-82
2023/03/14 06:15:42;;;;;;;12.82;3.67;;;10.60;99.90;;;;;;4911613;29;20252;-80
2023/03/14 06:18:08;;;;;;;5.15;4.10;;;10.70;99.90;;;;;;4921604;29;20256;-80
2023/03/14 06:20:38;;;;;;;3.55;3.25;;;10.60;99.90;;;;;;4921237;29;20268;-83
2023/03/14 06:23:07;;;;;;;3.22;2.90;;;10.90;99.90;;;;;;4921495;29;20504;-81
2023/03/14 06:25:34;;;;;;;3.38;3.08;;;11.30;99.90;;;;;;4914116;29;20209;-82
2023/03/14 06:28:02;;;;;;;3.45;3.15;;;11.80;99.90;;;;;;4912213;29;20218;-81
2023/03/14 06:30:29;;;;;;;5.97;4.88;;;12.10;99.90;;;;;;4919735;29;20202;-82
2023/03/14 06:32:57;;;;;;;4.07;3.33;;;12.10;99.90;;;;;;4911083;29;20219;-82
2023/03/14 06:35:24;;;;;;;4.82;3.28;;;12.10;99.90;;;;;;4917503;29;20245;-82
2023/03/14 06:37:51;;;;;;;5.50;3.80;;;12.00;99.90;;;;;;4911478;29;20240;-81
2023/03/14 06:40:20;;;;;;;4.00;2.63;;;11.70;99.90;;;;;;4916179;29;20220;-80
2023/03/14 06:42:47;;;;;;;7.18;3.78;;;11.50;99.90;;;;;;4916704;29;20213;-82
2023/03/14 06:45:14;;;;;;;6.88;4.18;;;11.50;99.90;;;;;;4918437;29;20538;-80
2023/03/14 06:47:42;;;;;;;3.70;3.33;;;11.50;99.90;;;;;;4920983;29;20509;-82
2023/03/14 06:50:10;;;;;;;5.20;4.57;;;11.50;99.90;;;;;;4914405;29;20226;-81
2023/03/14 06:52:41;;;;;;;4.63;4.00;;;11.50;99.90;;;;;;4911003;29;20257;-82
2023/03/14 06:55:08;;;;;;;5.60;4.03;;;11.50;99.90;;;;;;4920767;29;20210;-82
2023/03/14 06:57:35;;;;;;;4.10;3.60;;;11.60;99.90;;;;;;4910917;29;20227;-83
2023/03/14 07:00:04;;;;;;;8.73;3.63;;;11.50;99.90;;;;;;4912077;29;20300;-82
2023/03/14 07:02:31;;;;;;;7.00;3.40;;;11.50;99.90;;;;;;4913400;29;20275;-81
2023/03/14 07:05:10;;;;;;;5.55;4.13;;;11.60;99.90;;;;;;4907314;29;20231;-81
2023/03/14 07:07:37;;;;;;;5.13;4.53;;;11.70;99.90;;;;;;4908640;29;20430;-80
2023/03/14 07:10:04;;;;;;;7.05;4.05;;;11.80;99.90;;;;;;4909460;29;20550;-80
2023/03/14 07:12:32;;;;;;;4.68;3.35;;;11.90;99.90;;;;;;4916461;29;20233;-82
2023/03/14 07:14:59;;;;;;;6.53;4.55;;;12.10;99.90;;;;;;4922512;29;20212;-81
2023/03/14 07:17:42;;;;;;;5.10;3.97;;;12.30;99.90;;;;;;4911853;29;20309;-82
2023/03/14 07:20:10;;;;;;;4.30;3.83;;;12.40;99.90;;;;;;4916125;29;20270;-81
2023/03/14 07:22:37;;;;;;;7.50;4.70;;;12.40;99.90;;;;;;4906876;29;20267;-81
2023/03/14 07:25:05;;;;;;;6.10;4.65;;;12.70;99.90;;;;;;4910854;29;20209;-81
2023/03/14 07:27:32;;;;;;;7.95;5.13;;;12.70;99.90;;;;;;4913383;29;20219;-81
2023/03/14 07:29:59;;;;;;;12.80;4.97;;;12.30;99.90;;;;;;4915296;29;20258;-80
2023/03/14 07:32:26;;;;;;;5.85;4.22;;;12.00;99.90;;;;;;4912317;29;20207;-82
2023/03/14 07:34:53;;;;;;;5.80;4.70;;;12.10;99.90;;;;;;4916857;29;20637;-81
2023/03/14 07:37:20;;;;;;;15.32;8.38;;;12.10;99.90;;;;;;4913996;29;20225;-80
2023/03/14 07:39:47;;;;;;;6.15;4.65;;;12.00;99.90;;;;;;4910240;29;20255;-81
2023/03/14 07:42:14;;;;;;;15.98;6.80;;;11.90;99.90;;;;;;4915390;29;20215;-82
2023/03/14 07:44:41;;;;;;;10.00;4.55;;;11.80;99.90;;;;;;4913681;29;20240;-81
2023/03/14 07:47:08;;;;;;;10.15;5.28;;;11.80;99.90;;;;;;4915858;29;20208;-82
2023/03/14 07:49:35;;;;;;;6.78;4.55;;;11.70;99.90;;;;;;4904753;29;20408;-81
2023/03/14 07:52:02;;;;;;;5.80;4.72;;;11.60;99.90;;;;;;4917341;29;20257;-81
2023/03/14 07:54:29;;;;;;;9.32;5.15;;;11.50;99.90;;;;;;4919007;29;20271;-82
2023/03/14 07:56:58;;;;;;;12.23;4.05;;;11.40;99.90;;;;;;4906743;29;20204;-82
2023/03/14 07:59:25;;;;;;;5.32;3.78;;;11.20;99.90;;;;;;4914497;29;20239;-80
2023/03/14 08:01:52;;;;;;;7.57;4.78;;;11.20;99.90;;;;;;4909795;29;20406;-82
2023/03/14 08:04:18;;;;;;;7.00;4.55;;;11.00;99.90;;;;;;4910359;29;20221;-83
2023/03/14 08:06:45;;;;;;;13.90;7.85;;;11.00;99.90;;;;;;4904805;29;20252;-82
2023/03/14 08:09:12;;;;;;;7.38;3.97;;;11.00;99.90;;;;;;4917379;29;20205;-81
2023/03/14 08:11:39;;;;;;;6.70;4.90;;;11.10;99.90;;;;;;4916605;29;20220;-81
2023/03/14 08:14:06;;;;;;;7.55;5.03;;;10.90;99.90;;;;;;4924783;29;20215;-79
2023/03/14 08:16:33;;;;;;;5.32;4.00;;;10.80;99.90;;;;;;4924812;29;20342;-82
2023/03/14 08:19:02;;;;;;;3.90;3.50;;;10.80;99.90;;;;;;4917374;29;20235;-80
2023/03/14 08:21:29;;;;;;;12.20;4.65;;;10.80;99.90;;;;;;4911448;29;20266;-81
2023/03/14 08:23:56;;;;;;;7.75;4.55;;;10.80;99.90;;;;;;4917982;29;20220;-83
2023/03/14 08:26:23;;;;;;;7.90;4.97;;;11.00;99.90;;;;;;4922361;29;20221;-82
2023/03/14 08:28:49;;;;;;;16.98;5.28;;;11.20;99.90;;;;;;4911526;29;20271;-83
2023/03/14 08:31:17;;;;;;;8.63;4.32;;;11.10;99.90;;;;;;4923202;29;20236;-82
2023/03/14 08:33:44;;;;;;;10.80;4.90;;;11.00;99.90;;;;;;4910117;29;20529;-82
2023/03/14 08:36:11;;;;;;;7.40;5.45;;;10.90;99.90;;;;;;4917463;29;20213;-82
2023/03/14 08:38:37;;;;;;;5.18;4.25;;;10.80;99.90;;;;;;4914667;29;20290;-79
2023/03/14 08:41:04;;;;;;;7.10;4.45;;;10.80;99.90;;;;;;4921661;29;20213;-81
2023/03/14 08:43:31;;;;;;;7.38;4.57;;;10.90;99.90;;;;;;4914706;29;20224;-81
2023/03/14 08:45:59;;;;;;;9.18;5.15;;;10.80;99.90;;;;;;4920904;29;20411;-81
2023/03/14 08:48:26;;;;;;;8.27;5.43;;;10.90;99.90;;;;;;4915491;29;20277;-84
2023/03/14 08:50:55;;;;;;;5.78;5.03;;;11.10;99.90;;;;;;4922773;29;20270;-83
2023/03/14 08:53:22;;;;;;;5.07;4.10;;;11.00;99.90;;;;;;4921805;29;20216;-83
2023/03/14 08:55:55;;;;;;;9.52;4.70;;;10.90;99.90;;;;;;4918338;29;20209;-84
2023/03/14 08:58:23;;;;;;;7.43;4.55;;;11.30;99.90;;;;;;4919969;29;20229;-83
2023/03/14 09:00:50;;;;;;;6.65;4.10;;;11.60;99.90;;;;;;4913495;29;20210;-84
2023/03/14 09:03:17;;;;;;;6.40;4.90;;;11.90;99.90;;;;;;4922771;29;20259;-83
2023/03/14 09:05:45;;;;;;;5.80;4.00;;;12.10;99.90;;;;;;4915244;29;20198;-85
2023/03/14 09:08:11;;;;;;;9.63;5.43;;;12.20;99.90;;;;;;4917771;29;20210;-83
2023/03/14 09:10:38;;;;;;;9.40;4.78;;;12.20;99.90;;;;;;4917983;29;20279;-83
2023/03/14 09:13:05;;;;;;;9.70;5.47;;;12.10;99.90;;;;;;4924618;29;20395;-83
2023/03/14 09:15:32;;;;;;;6.80;4.00;;;12.00;99.90;;;;;;4917724;29;20211;-82
2023/03/14 09:17:59;;;;;;;10.82;5.00;;;12.00;99.90;;;;;;4933744;29;20197;-83
2023/03/14 09:20:27;;;;;;;14.40;7.72;;;12.00;99.90;;;;;;4940430;29;20216;-83
2023/03/14 09:22:54;;;;;;;14.73;7.43;;;11.80;99.90;;;;;;4930339;29;20204;-81
2023/03/14 09:25:21;;;;;;;10.60;5.85;;;11.90;99.90;;;;;;4924130;29;20776;-83
2023/03/14 09:27:47;;;;;;;18.42;6.35;;;12.00;99.90;;;;;;4923704;29;20271;-82
2023/03/14 09:30:15;;;;;;;20.88;8.15;;;12.10;99.90;;;;;;4920722;29;20221;-81
2023/03/14 09:32:41;;;;;;;10.40;6.50;;;12.10;99.90;;;;;;4926517;29;20204;-83
2023/03/14 09:35:09;;;;;;;6.60;5.28;;;12.10;99.90;;;;;;4918454;29;20238;-82
2023/03/14 09:37:36;;;;;;;12.88;6.88;;;11.90;99.90;;;;;;4917269;29;20235;-84
2023/03/14 09:40:10;;;;;;;9.15;5.60;;;12.00;99.90;;;;;;4921587;29;20238;-82
2023/03/14 09:42:39;;;;;;;6.85;3.80;;;11.90;99.90;;;;;;4929222;29;20225;-81
2023/03/14 09:45:17;;;;;;;6.50;3.53;;;11.90;99.90;;;;;;4919339;29;20712;-82
2023/03/14 09:47:45;;;;;;;13.82;7.28;;;11.90;99.90;;;;;;4915252;29;20515;-82
2023/03/14 09:50:29;;;;;;;10.00;6.60;;;11.90;99.90;;;;;;4913813;29;20224;-83
2023/03/14 09:53:01;;;;;;;4.95;4.07;;;11.80;99.90;;;;;;4917761;29;20206;-83
2023/03/14 09:55:28;;;;;;;57.30;25.00;;;11.60;99.90;;;;;;4911637;29;20215;-84
2023/03/14 09:57:59;;;;;;;15.93;8.80;;;11.70;99.90;;;;;;4917259;29;20427;-82
2023/03/14 10:00:30;;;;;;;9.50;5.18;;;11.70;99.90;;;;;;4913295;29;20277;-82
2023/03/14 10:03:13;;;;;;;10.57;4.93;;;11.80;99.90;;;;;;4915905;29;20263;-81
2023/03/14 10:05:41;;;;;;;17.65;6.75;;;11.80;99.90;;;;;;4923087;29;20228;-84
2023/03/14 10:08:13;;;;;;;16.48;7.60;;;11.90;99.90;;;;;;4918269;29;20244;-83
2023/03/14 10:10:40;;;;;;;8.30;5.40;;;12.10;99.90;;;;;;4922364;29;20251;-82
2023/03/14 10:13:27;;;;;;;10.70;5.57;;;12.40;99.90;;;;;;4918889;29;20230;-82
2023/03/14 10:15:59;;;;;;;6.45;3.60;;;12.60;99.90;;;;;;4911350;29;20307;-82
2023/03/14 10:18:30;;;;;;;7.95;3.97;;;12.70;99.90;;;;;;4915373;29;20215;-82
2023/03/14 10:21:21;;;;;;;5.53;4.45;;;12.80;99.90;;;;;;4916896;29;20256;-83
2023/03/14 10:23:48;;;;;;;5.47;3.38;;;12.80;99.90;;;;;;4918874;29;20250;-83
2023/03/14 10:26:19;;;;;;;5.97;3.65;;;12.80;99.90;;;;;;4916418;29;20233;-82
2023/03/14 10:28:51;;;;;;;5.75;3.63;;;13.00;99.90;;;;;;4911833;29;20485;-82
2023/03/14 10:31:18;;;;;;;8.13;4.30;;;13.10;99.90;;;;;;4915896;29;20217;-83
2023/03/14 10:34:01;;;;;;;6.88;5.40;;;13.50;99.90;;;;;;4920734;29;20222;-82
2023/03/14 10:36:31;;;;;;;6.38;4.18;;;13.50;99.90;;;;;;4907140;29;20213;-83
2023/03/14 10:39:28;;;;;;;6.40;4.72;;;13.80;99.90;;;;;;4920642;29;20236;-82
2023/03/14 10:42:04;;;;;;;6.68;5.30;;;13.90;99.90;;;;;;4910393;29;20213;-82
2023/03/14 10:44:34;;;;;;;5.97;3.53;;;14.00;99.90;;;;;;4915545;29;20237;-84
2023/03/14 10:47:03;;;;;;;14.55;4.80;;;13.80;99.90;;;;;;4910485;29;20227;-82
2023/03/14 10:49:34;;;;;;;5.45;4.00;;;13.80;99.90;;;;;;4912499;29;20236;-82
2023/03/14 10:52:13;;;;;;;6.88;4.57;;;14.00;99.90;;;;;;4915986;29;20221;-83
2023/03/14 10:54:47;;;;;;;7.22;4.45;;;14.00;99.90;;;;;;4919266;29;20562;-82
2023/03/14 10:57:14;;;;;;;5.68;4.60;;;14.10;99.90;;;;;;4909434;29;20217;-83
2023/03/14 10:59:42;;;;;;;7.97;4.38;;;14.30;99.90;;;;;;4907653;29;20280;-82
2023/03/14 11:02:38;;;;;;;7.82;4.70;;;14.50;99.90;;;;;;4911704;29;20213;-82
2023/03/14 11:05:28;;;;;;;8.85;4.95;;;14.50;99.90;;;;;;4909252;29;20279;-82
2023/03/14 11:08:09;;;;;;;6.60;4.83;;;14.80;99.90;;;;;;4920133;29;20209;-81
2023/03/14 11:10:42;;;;;;;8.60;4.53;;;15.00;99.90;;;;;;4922596;29;20712;-81
2023/03/14 11:13:35;;;;;;;4.80;3.87;;;15.10;99.90;;;;;;4923255;29;20479;-82
2023/03/14 11:16:02;;;;;;;4.53;3.43;;;15.40;99.90;;;;;;4915113;29;20519;-83
2023/03/14 11:19:04;;;;;;;5.83;3.70;;;15.30;99.90;;;;;;4913016;29;20490;-81
2023/03/14 11:21:45;;;;;;;4.20;2.43;;;15.20;99.90;;;;;;4910113;29;20519;-82
2023/03/14 11:24:28;;;;;;;8.10;3.00;;;15.30;99.90;;;;;;4910257;29;20444;-81
2023/03/14 11:27:17;;;;;;;4.57;2.50;;;15.50;99.90;;;;;;4905827;29;20443;-83
2023/03/14 11:30:30;;;;;;;2.70;2.50;;;15.90;99.90;;;;;;4918766;29;20458;-81
2023/03/14 11:33:15;;;;;;;6.93;2.70;;;16.00;99.90;;;;;;4917084;29;20452;-82
2023/03/14 11:36:07;;;;;;;2.67;2.47;;;16.20;99.90;;;;;;4916097;29;20424;-82
2023/03/14 11:38:38;;;;;;;3.20;2.70;;;16.00;99.90;;;;;;4913217;29;20836;-81
2023/03/14 11:41:18;;;;;;;3.33;3.03;;;15.80;99.90;;;;;;4915434;29;20403;-82
2023/03/14 11:43:53;;;;;;;3.30;2.50;;;15.60;99.90;;;;;;4917352;29;20679;-82
2023/03/14 11:46:34;;;;;;;8.40;3.60;;;15.70;99.90;;;;;;4918700;29;20498;-82
2023/03/14 11:49:13;;;;;;;6.43;3.10;;;15.60;99.90;;;;;;4920720;29;20676;-83
2023/03/14 11:51:45;;;;;;;9.43;3.13;;;15.60;99.90;;;;;;4916037;29;20459;-82
2023/03/14 11:54:24;;;;;;;4.63;2.67;;;15.40;99.90;;;;;;4922740;29;20473;-82
2023/03/14 11:56:57;;;;;;;4.67;2.80;;;15.10;99.90;;;;;;4916530;29;20494;-82
2023/03/14 11:59:48;;;;;;;4.90;3.33;;;15.10;99.90;;;;;;4924190;29;20479;-82
2023/03/14 12:02:24;;;;;;;5.07;2.70;;;15.40;99.90;;;;;;4910657;29;20465;-82
2023/03/14 12:05:16;;;;;;;8.87;3.10;;;15.50;99.90;;;;;;4923857;29;20442;-83
2023/03/14 12:07:58;;;;;;;3.30;2.93;;;15.70;99.90;;;;;;4923032;29;20878;-82
2023/03/14 12:10:27;;;;;;;5.40;3.20;;;15.70;99.90;;;;;;4915343;29;20422;-84
2023/03/14 12:12:54;;;;;;;4.20;3.53;;;15.40;99.90;;;;;;4921783;29;20495;-81
2023/03/14 12:15:23;;;;;;;5.07;3.30;;;15.00;99.90;;;;;;4912331;29;20453;-83
2023/03/14 12:17:56;;;;;;;6.53;3.30;;;15.00;99.90;;;;;;4913243;29;20446;-82
2023/03/14 12:20:25;;;;;;;4.60;3.60;;;14.80;99.90;;;;;;4922866;29;20724;-82
2023/03/14 12:23:02;;;;;;;4.97;4.50;;;14.90;99.90;;;;;;4923447;29;20600;-83
2023/03/14 12:25:31;;;;;;;6.37;4.50;;;15.00;99.90;;;;;;4922355;29;20439;-83
2023/03/14 12:28:19;;;;;;;8.27;4.23;;;15.00;99.90;;;;;;4912172;29;20448;-83
2023/03/14 12:30:46;;;;;;;7.87;4.20;;;15.10;99.90;;;;;;4913516;29;20583;-81
2023/03/14 12:33:16;;;;;;;7.03;4.50;;;14.80;99.90;;;;;;4922015;29;20605;-81
2023/03/14 12:35:47;;;;;;;5.95;3.38;;;14.60;99.90;;;;;;4914360;29;20759;-83
2023/03/14 12:38:35;;;;;;;7.78;4.95;;;14.60;99.90;;;;;;4907774;29;20240;-81
2023/03/14 12:41:23;;;;;;;8.93;4.53;;;14.50;99.90;;;;;;4911130;29;20296;-82
2023/03/14 12:43:50;;;;;;;6.60;3.80;;;14.50;99.90;;;;;;4908990;29;20460;-82
2023/03/14 12:46:17;;;;;;;8.05;4.80;;;14.60;99.90;;;;;;4909326;29;20462;-81
2023/03/14 12:48:55;;;;;;;10.17;5.30;;;14.70;99.90;;;;;;4912979;29;20239;-81
2023/03/14 12:51:37;;;;;;;6.97;4.93;;;14.60;99.90;;;;;;4916123;29;20656;-81
2023/03/14 12:54:19;;;;;;;6.60;5.10;;;14.40;99.90;;;;;;4913961;29;20260;-81
2023/03/14 12:57:05;;;;;;;6.03;4.38;;;14.50;99.90;;;;;;4921798;29;20216;-80
2023/03/14 12:59:47;;;;;;;8.98;4.95;;;14.50;99.90;;;;;;4909985;29;20232;-81
2023/03/14 13:02:27;;;;;;;7.00;3.95;;;14.50;99.90;;;;;;4915243;29;20409;-82